H2ome — WDH5583 — position and weather

sailwx.info

Track history (hours):
 
Tides and Currents Weather Stations Pressure Air Temp Water Temp Dewpoint Dewpoint Depression Visibility Wind Speed Wind Dir Waves Ship Positions

H2ome

Owner: Haney, John E, Fort Lauderdale, FL. More information available from US FCC via Universal Licensing System.

Last reported at 2018-May-17 12:15 UTC. Time now 2018-Jun-23 23:27 UTC.
Position N 39°46' W 073°57'.
Warning: this ship's position is 37 days out of date.

Length 24 m.

Type: Pleasure craft. MMSI: 367629320.

Date/timePositionNaut miles runAvg speedWind from/ knotsBaromVisibWave heightAir tempDewpointWater temp
2018-May-17 12:15N 39°46' W 073°57'519.6
2018-May-17 12:00N 39°42' W 074°01'202 4.5
2018-May-15 15:36N 36°52' W 076°20'1 9.4
2018-May-15 15:26N 36°51' W 076°18'3 7.6
2018-May-15 15:00N 36°48' W 076°18'113 4.1
2018-May-14 11:27N 34°56' W 076°39'613.8
2018-May-14 11:00N 34°50' W 076°41'612.5
2018-May-14 10:30N 34°44' W 076°41'2 3.1
2018-May-14 09:59N 34°43' W 076°40'0 0.0
2018-May-14 09:26N 34°43' W 076°40'0 0.0
2018-May-14 08:59N 34°43' W 076°40'0 0.0
2018-May-14 08:29N 34°43' W 076°40'0 0.0
2018-May-14 07:59N 34°43' W 076°40'0 0.0
2018-May-14 07:29N 34°43' W 076°40'0 0.0
2018-May-14 06:59N 34°43' W 076°40'0 0.0
2018-May-14 06:29N 34°43' W 076°40'0 0.0
2018-May-14 05:59N 34°43' W 076°40'0 0.0
2018-May-14 05:29N 34°43' W 076°40'0 0.0
2018-May-14 04:59N 34°43' W 076°40'0 0.0
2018-May-14 04:29N 34°43' W 076°40'0 0.0
2018-May-14 03:59N 34°43' W 076°40'0 0.0
2018-May-14 03:29N 34°43' W 076°40'0 0.0
2018-May-14 02:59N 34°43' W 076°40'0 0.0
2018-May-14 02:29N 34°43' W 076°40'0 0.0
2018-May-14 01:59N 34°43' W 076°40'0 0.0
2018-May-14 01:29N 34°43' W 076°40'0 0.0
2018-May-14 00:59N 34°43' W 076°40'0 0.0
2018-May-14 00:29N 34°43' W 076°40'0 0.0
2018-May-13 23:59N 34°43' W 076°40'0 0.0
2018-May-13 23:29N 34°43' W 076°40'0 0.0
2018-May-13 22:59N 34°43' W 076°40'0 0.0
2018-May-13 22:29N 34°43' W 076°40'0 0.0
2018-May-13 21:59N 34°43' W 076°40'0 0.0
2018-May-13 21:26N 34°43' W 076°40'0 0.0
2018-May-13 20:59N 34°43' W 076°40'3 6.7
2018-May-13 20:30N 34°40' W 076°41'18819.4
2018-May-13 10:51N 32°46' W 079°40'42 2.5
2018-May-12 18:07N 32°10' W 080°06'219.4
2018-May-12 18:00N 32°08' W 080°07'1019.2
2018-May-12 17:30N 31°59' W 080°12'918.9
2018-May-12 16:59N 31°51' W 080°16'291 9.9
2018-May-11 11:36N 27°00' W 080°03'217.8
2018-May-11 11:29N 26°58' W 080°02'  
Track history (hours):
 
Tides and Currents Weather Stations Pressure Air Temp Water Temp Dewpoint Dewpoint Depression Visibility Wind Speed Wind Dir Waves Ship Positions

H2ome

Owner: Haney, John E, Fort Lauderdale, FL. More information available from US FCC via Universal Licensing System.

Last reported at 2018-May-17 12:15 UTC. Time now 2018-Jun-23 23:27 UTC.
Position N 39°46' W 073°57'.
Warning: this ship's position is 37 days out of date.

Length 24 m.

Type: Pleasure craft. MMSI: 367629320.

Date/timePositionNaut miles runAvg speedWind from/ knotsBaromVisibWave heightAir tempDewpointWater temp
2018-May-17 12:15N 39°46' W 073°57'519.6
2018-May-17 12:00N 39°42' W 074°01'202 4.5
2018-May-15 15:36N 36°52' W 076°20'1 9.4
2018-May-15 15:26N 36°51' W 076°18'3 7.6
2018-May-15 15:00N 36°48' W 076°18'113 4.1
2018-May-14 11:27N 34°56' W 076°39'613.8
2018-May-14 11:00N 34°50' W 076°41'612.5
2018-May-14 10:30N 34°44' W 076°41'2 3.1
2018-May-14 09:59N 34°43' W 076°40'0 0.0
2018-May-14 09:26N 34°43' W 076°40'0 0.0
2018-May-14 08:59N 34°43' W 076°40'0 0.0
2018-May-14 08:29N 34°43' W 076°40'0 0.0
2018-May-14 07:59N 34°43' W 076°40'0 0.0
2018-May-14 07:29N 34°43' W 076°40'0 0.0
2018-May-14 06:59N 34°43' W 076°40'0 0.0
2018-May-14 06:29N 34°43' W 076°40'0 0.0
2018-May-14 05:59N 34°43' W 076°40'0 0.0
2018-May-14 05:29N 34°43' W 076°40'0 0.0
2018-May-14 04:59N 34°43' W 076°40'0 0.0
2018-May-14 04:29N 34°43' W 076°40'0 0.0
2018-May-14 03:59N 34°43' W 076°40'0 0.0
2018-May-14 03:29N 34°43' W 076°40'0 0.0
2018-May-14 02:59N 34°43' W 076°40'0 0.0
2018-May-14 02:29N 34°43' W 076°40'0 0.0
2018-May-14 01:59N 34°43' W 076°40'0 0.0
2018-May-14 01:29N 34°43' W 076°40'0 0.0
2018-May-14 00:59N 34°43' W 076°40'0 0.0
2018-May-14 00:29N 34°43' W 076°40'0 0.0
2018-May-13 23:59N 34°43' W 076°40'0 0.0
2018-May-13 23:29N 34°43' W 076°40'0 0.0
2018-May-13 22:59N 34°43' W 076°40'0 0.0
2018-May-13 22:29N 34°43' W 076°40'0 0.0
2018-May-13 21:59N 34°43' W 076°40'0 0.0
2018-May-13 21:26N 34°43' W 076°40'0 0.0
2018-May-13 20:59N 34°43' W 076°40'3 6.7
2018-May-13 20:30N 34°40' W 076°41'18819.4
2018-May-13 10:51N 32°46' W 079°40'42 2.5
2018-May-12 18:07N 32°10' W 080°06'219.4
2018-May-12 18:00N 32°08' W 080°07'1019.2
2018-May-12 17:30N 31°59' W 080°12'918.9
2018-May-12 16:59N 31°51' W 080°16'291 9.9
2018-May-11 11:36N 27°00' W 080°03'217.8
2018-May-11 11:29N 26°58' W 080°02'  

Dump ship's entire track history